Split HR Speed Test Log

Averages  Max Speed    
1 to 25 of 11037** for City Split HR
Time
  
  Speed   Provider Size    User ConnectID   TestID  
12/12/19 5:41:51 pm 23.01 Mbps 2.88 MB/sIskon 24.9 MB8176739458420 EMOzr7aND 
12/12/19 5:41:23 pm 1.6 Mbps 200 kB/sIskon 2.4 MB8176739458420 5fcEH4gDD 
12/12/19 5:09:56 pm 46.12 Mbps 5.76 MB/sHrvatski 85.9 MB423565020732 4Al2-sHp5 
12/12/19 2:58:12 pm 10.03 Mbps 1.25 MB/sHrvatski 6.2 MB8541533520138 LO9Ljgmad 
12/12/19 2:58:02 pm 9.71 Mbps 1.21 MB/sHrvatski 13 MB8541533520138 5wNv73ur- 
12/12/19 2:54:12 pm 1.36 Mbps 171 kB/sHrvatski 2.1 MB8177471816740 Lde2_kXhe 
12/12/19 2:53:49 pm 2.55 Mbps 319 kB/sHrvatski 7.1 MB8177471816740 5hk35sssW 
12/12/19 9:25:51 am 9.65 Mbps 1.21 MB/sHrvatski 100 MB854153420697 7mdBnF4GR 
12/12/19 9:24:12 am 45.58 Mbps 5.7 MB/sHrvatski 200 MB854153420697 gvgn0bR9m 
12/12/19 9:23:21 am 675 kbps 84 kB/sHrvatski 2.2 MB854153420697 xHaRUaspJ 
12/7/19 3:21:25 pm 8.85 Mbps 1.11 MB/sHrvatski 6.1 MB85416722528 6IBtCYVgR 
12/7/19 3:21:17 pm 48.09 Mbps 6.01 MB/sHrvatski 53.4 MB85416722528 38sQ79vaZ 
12/5/19 4:03:07 am 993 kbps 124 kB/sIskon 7.7 MB8176740107320 ah1Qci-fT 
12/4/19 8:16:33 pm 1.81 Mbps 226 kB/sIskon 7.7 MB8176740107320 rSt58TdVr 
12/4/19 7:45:44 pm 9.44 Mbps 1.18 MB/sIskon 7.7 MB8176740107320 DX7rS5z~r 
12/4/19 7:45:25 pm 4.56 Mbps 570 kB/sIskon 2.5 MB8176740107320 J2sJaSLFB 
12/4/19 6:57:08 pm 8.15 Mbps 1.02 MB/sIskon 6.5 MB8176740107320 vHuBcNvUx 
12/4/19 6:56:48 pm 9.38 Mbps 1.17 MB/sIskon 6.5 MB8176740107320 shsX_dCiO 
12/4/19 6:56:37 pm 6.75 Mbps 844 kB/sIskon 6.5 MB8176740107320 LMGcSclAp 
12/4/19 6:56:22 pm 9.39 Mbps 1.17 MB/sIskon 6.5 MB8176740107320 jAPIrKxpu 
12/4/19 6:56:05 pm 8.63 Mbps 1.08 MB/sIskon 6.5 MB8176740107320 dY_I1enWH 
12/4/19 6:19:31 pm 1.64 Mbps 205 kB/sIskon 2.5 MB81767400878 XqsK~OReA 
12/4/19 8:16:06 am 14.03 Mbps 1.75 MB/sOptima 25.3 MB8728251514521 t~C1NJjVE 
12/3/19 10:16:01 am 11.89 Mbps 1.49 MB/sOptima 81.8 MB8728251521765 N2OCkVNzz 
12/1/19 11:32:09 pm 988 kbps 124 kB/sIskon 1.3 MB8176739371760 LHL-Vc5W9 
  
** Partial Results: The most recent results have been displayed. Results over 50 Mbps are highlighted.
Calculated from graphed results above not entire query.
Displaying Internet Speed Test results for City Split HR

Minimum

Min 0.68 Mbps : 0.99 Mbps

Average

Avg 13.2 Mbps : 6.18 Mbps

Maximum

Max 48.09 Mbps : 10.03 Mbps

Minimum

Min: 0.68 Mbps : 0.99 Mbps |

Average

Avg: 13.2 Mbps : 6.18 Mbps |

Maximum

Max: 48.09 Mbps : 10.03 Mbps